CPX967 Details

Departure: Travis Air Force Base (KSUU)
Arrival: Seattle-Tacoma International Airport (KSEA)
Route: WAPEX RBL J65 LMT HAWKZ7
Notes: EMPTY | NON-REVENUE REPOSITIONING LEG


Current Weather Information
KSUU 232158Z AUTO 33013G16KT 10SM CLR 27/09 A2978 RMK AO2 SLP091 T02690092 $
KSEA 232253Z VRB05KT 10SM FEW040 SCT250 24/11 A2991 RMK AO2 SLP133 T02390111